sensor_id;sensor_type;location;lat;lon;timestamp;P1;durP1;ratioP1;P2;durP2;ratioP2
68989;SDS011;56046;47.270;11.368;2023-09-30T00:01:38;6.80;;;3.40;;
68989;SDS011;56046;47.270;11.368;2023-09-30T00:04:04;5.20;;;2.80;;
68989;SDS011;56046;47.270;11.368;2023-09-30T00:06:30;7.70;;;3.10;;
68989;SDS011;56046;47.270;11.368;2023-09-30T00:08:55;8.87;;;3.23;;
68989;SDS011;56046;47.270;11.368;2023-09-30T00:11:21;6.53;;;3.20;;
68989;SDS011;56046;47.270;11.368;2023-09-30T00:13:46;6.83;;;3.70;;
68989;SDS011;56046;47.270;11.368;2023-09-30T00:16:13;7.03;;;3.00;;
68989;SDS011;56046;47.270;11.368;2023-09-30T00:18:39;6.17;;;3.00;;
68989;SDS011;56046;47.270;11.368;2023-09-30T00:21:05;6.10;;;2.90;;
68989;SDS011;56046;47.270;11.368;2023-09-30T00:23:31;4.60;;;2.50;;
68989;SDS011;56046;47.270;11.368;2023-09-30T00:25:56;7.13;;;3.43;;
68989;SDS011;56046;47.270;11.368;2023-09-30T00:28:21;5.80;;;2.80;;
68989;SDS011;56046;47.270;11.368;2023-09-30T00:30:47;6.77;;;3.20;;
68989;SDS011;56046;47.270;11.368;2023-09-30T00:33:12;5.75;;;2.78;;
68989;SDS011;56046;47.270;11.368;2023-09-30T00:35:38;6.27;;;3.03;;
68989;SDS011;56046;47.270;11.368;2023-09-30T00:38:03;6.47;;;2.83;;
68989;SDS011;56046;47.270;11.368;2023-09-30T00:40:28;7.17;;;3.20;;
68989;SDS011;56046;47.270;11.368;2023-09-30T00:42:53;7.50;;;3.27;;
68989;SDS011;56046;47.270;11.368;2023-09-30T00:45:19;6.93;;;2.73;;
68989;SDS011;56046;47.270;11.368;2023-09-30T00:47:44;6.57;;;2.67;;
68989;SDS011;56046;47.270;11.368;2023-09-30T00:50:09;6.90;;;3.07;;
68989;SDS011;56046;47.270;11.368;2023-09-30T00:52:37;6.00;;;3.13;;
68989;SDS011;56046;47.270;11.368;2023-09-30T00:55:03;5.65;;;2.95;;
68989;SDS011;56046;47.270;11.368;2023-09-30T00:57:30;8.40;;;3.53;;
68989;SDS011;56046;47.270;11.368;2023-09-30T00:59:56;11.03;;;4.40;;
68989;SDS011;56046;47.270;11.368;2023-09-30T01:02:21;7.07;;;3.43;;
68989;SDS011;56046;47.270;11.368;2023-09-30T01:04:48;9.40;;;3.80;;
68989;SDS011;56046;47.270;11.368;2023-09-30T01:07:13;7.50;;;3.90;;
68989;SDS011;56046;47.270;11.368;2023-09-30T01:09:38;9.57;;;4.15;;
68989;SDS011;56046;47.270;11.368;2023-09-30T01:12:04;7.93;;;4.37;;
68989;SDS011;56046;47.270;11.368;2023-09-30T01:14:30;8.03;;;4.30;;
68989;SDS011;56046;47.270;11.368;2023-09-30T01:16:55;10.05;;;4.55;;
68989;SDS011;56046;47.270;11.368;2023-09-30T01:19:21;9.13;;;4.43;;
68989;SDS011;56046;47.270;11.368;2023-09-30T01:21:47;8.95;;;4.28;;
68989;SDS011;56046;47.270;11.368;2023-09-30T01:24:16;9.45;;;3.97;;
68989;SDS011;56046;47.270;11.368;2023-09-30T01:26:41;9.67;;;3.50;;
68989;SDS011;56046;47.270;11.368;2023-09-30T01:29:07;7.63;;;3.33;;
68989;SDS011;56046;47.270;11.368;2023-09-30T01:31:36;7.00;;;3.30;;
68989;SDS011;56046;47.270;11.368;2023-09-30T01:34:01;10.30;;;3.17;;
68989;SDS011;56046;47.270;11.368;2023-09-30T01:36:26;5.90;;;3.00;;
68989;SDS011;56046;47.270;11.368;2023-09-30T01:38:53;8.10;;;3.10;;
68989;SDS011;56046;47.270;11.368;2023-09-30T01:41:18;6.83;;;3.60;;
68989;SDS011;56046;47.270;11.368;2023-09-30T01:43:44;6.10;;;2.93;;
68989;SDS011;56046;47.270;11.368;2023-09-30T01:46:09;8.03;;;3.57;;
68989;SDS011;56046;47.270;11.368;2023-09-30T01:48:34;6.30;;;3.10;;
68989;SDS011;56046;47.270;11.368;2023-09-30T01:50:59;5.95;;;3.13;;
68989;SDS011;56046;47.270;11.368;2023-09-30T01:53:25;6.53;;;3.27;;
68989;SDS011;56046;47.270;11.368;2023-09-30T01:55:50;6.13;;;2.87;;
68989;SDS011;56046;47.270;11.368;2023-09-30T01:58:15;6.30;;;3.47;;
68989;SDS011;56046;47.270;11.368;2023-09-30T02:00:40;5.40;;;2.83;;
68989;SDS011;56046;47.270;11.368;2023-09-30T02:03:06;5.20;;;2.67;;
68989;SDS011;56046;47.270;11.368;2023-09-30T02:05:32;6.47;;;3.43;;
68989;SDS011;56046;47.270;11.368;2023-09-30T02:07:57;6.13;;;3.10;;
68989;SDS011;56046;47.270;11.368;2023-09-30T02:10:23;6.30;;;3.40;;
68989;SDS011;56046;47.270;11.368;2023-09-30T02:12:48;6.23;;;3.23;;
68989;SDS011;56046;47.270;11.368;2023-09-30T02:15:14;5.80;;;3.10;;
68989;SDS011;56046;47.270;11.368;2023-09-30T02:17:39;7.50;;;3.47;;
68989;SDS011;56046;47.270;11.368;2023-09-30T02:20:05;6.83;;;3.10;;
68989;SDS011;56046;47.270;11.368;2023-09-30T02:22:37;5.88;;;3.00;;
68989;SDS011;56046;47.270;11.368;2023-09-30T02:25:03;5.90;;;3.23;;
68989;SDS011;56046;47.270;11.368;2023-09-30T02:27:32;7.40;;;3.72;;
68989;SDS011;56046;47.270;11.368;2023-09-30T02:29:57;7.00;;;3.60;;
68989;SDS011;56046;47.270;11.368;2023-09-30T02:32:22;6.33;;;3.07;;
68989;SDS011;56046;47.270;11.368;2023-09-30T02:34:49;5.20;;;3.13;;
68989;SDS011;56046;47.270;11.368;2023-09-30T02:37:15;5.85;;;3.45;;
68989;SDS011;56046;47.270;11.368;2023-09-30T02:39:40;7.17;;;2.90;;
68989;SDS011;56046;47.270;11.368;2023-09-30T02:42:09;6.13;;;3.03;;
68989;SDS011;56046;47.270;11.368;2023-09-30T02:44:34;7.30;;;3.33;;
68989;SDS011;56046;47.270;11.368;2023-09-30T02:46:59;5.33;;;2.73;;
68989;SDS011;56046;47.270;11.368;2023-09-30T02:49:24;7.77;;;3.07;;
68989;SDS011;56046;47.270;11.368;2023-09-30T02:51:50;5.67;;;3.17;;
68989;SDS011;56046;47.270;11.368;2023-09-30T02:54:15;6.07;;;3.40;;
68989;SDS011;56046;47.270;11.368;2023-09-30T02:56:41;7.88;;;3.63;;
68989;SDS011;56046;47.270;11.368;2023-09-30T02:59:06;5.57;;;3.10;;
68989;SDS011;56046;47.270;11.368;2023-09-30T03:01:32;6.40;;;3.40;;
68989;SDS011;56046;47.270;11.368;2023-09-30T03:03:57;6.78;;;3.50;;
68989;SDS011;56046;47.270;11.368;2023-09-30T03:06:22;7.00;;;3.60;;
68989;SDS011;56046;47.270;11.368;2023-09-30T03:08:48;8.13;;;3.50;;
68989;SDS011;56046;47.270;11.368;2023-09-30T03:11:13;7.47;;;3.00;;
68989;SDS011;56046;47.270;11.368;2023-09-30T03:13:38;6.10;;;3.37;;
68989;SDS011;56046;47.270;11.368;2023-09-30T03:16:07;5.75;;;2.97;;
68989;SDS011;56046;47.270;11.368;2023-09-30T03:18:32;6.00;;;3.00;;
68989;SDS011;56046;47.270;11.368;2023-09-30T03:20:58;6.17;;;3.17;;
68989;SDS011;56046;47.270;11.368;2023-09-30T03:23:25;6.72;;;3.25;;
68989;SDS011;56046;47.270;11.368;2023-09-30T03:25:56;6.10;;;3.28;;
68989;SDS011;56046;47.270;11.368;2023-09-30T03:28:21;6.23;;;3.27;;
68989;SDS011;56046;47.270;11.368;2023-09-30T03:30:47;6.20;;;3.10;;
68989;SDS011;56046;47.270;11.368;2023-09-30T03:33:12;5.17;;;2.87;;
68989;SDS011;56046;47.270;11.368;2023-09-30T03:35:38;5.93;;;2.83;;
68989;SDS011;56046;47.270;11.368;2023-09-30T03:38:03;5.97;;;3.20;;
68989;SDS011;56046;47.270;11.368;2023-09-30T03:40:29;5.80;;;2.90;;
68989;SDS011;56046;47.270;11.368;2023-09-30T03:42:58;6.05;;;3.17;;
68989;SDS011;56046;47.270;11.368;2023-09-30T03:45:24;6.80;;;3.20;;
68989;SDS011;56046;47.270;11.368;2023-09-30T03:47:49;6.47;;;3.10;;
68989;SDS011;56046;47.270;11.368;2023-09-30T03:50:16;7.15;;;2.95;;
68989;SDS011;56046;47.270;11.368;2023-09-30T03:52:41;6.43;;;3.00;;
68989;SDS011;56046;47.270;11.368;2023-09-30T03:55:10;6.95;;;3.25;;
68989;SDS011;56046;47.270;11.368;2023-09-30T03:57:37;6.53;;;3.38;;
68989;SDS011;56046;47.270;11.368;2023-09-30T04:00:02;8.07;;;3.90;;
68989;SDS011;56046;47.270;11.368;2023-09-30T04:02:31;8.05;;;3.28;;
68989;SDS011;56046;47.270;11.368;2023-09-30T04:04:56;7.60;;;3.80;;
68989;SDS011;56046;47.270;11.368;2023-09-30T04:07:22;8.15;;;3.50;;
68989;SDS011;56046;47.270;11.368;2023-09-30T04:09:52;6.72;;;3.20;;
68989;SDS011;56046;47.270;11.368;2023-09-30T04:12:17;5.67;;;3.00;;
68989;SDS011;56046;47.270;11.368;2023-09-30T04:14:42;7.30;;;3.20;;
68989;SDS011;56046;47.270;11.368;2023-09-30T04:17:08;7.20;;;3.13;;
68989;SDS011;56046;47.270;11.368;2023-09-30T04:19:34;6.90;;;3.35;;
68989;SDS011;56046;47.270;11.368;2023-09-30T04:21:59;6.33;;;3.37;;
68989;SDS011;56046;47.270;11.368;2023-09-30T04:24:25;6.40;;;3.20;;
68989;SDS011;56046;47.270;11.368;2023-09-30T04:26:50;8.50;;;3.43;;
68989;SDS011;56046;47.270;11.368;2023-09-30T04:29:17;6.10;;;3.13;;
68989;SDS011;56046;47.270;11.368;2023-09-30T04:31:43;8.52;;;3.25;;
68989;SDS011;56046;47.270;11.368;2023-09-30T04:34:09;6.25;;;3.47;;
68989;SDS011;56046;47.270;11.368;2023-09-30T04:36:35;6.00;;;3.40;;
68989;SDS011;56046;47.270;11.368;2023-09-30T04:39:00;7.27;;;3.70;;
68989;SDS011;56046;47.270;11.368;2023-09-30T04:41:26;5.97;;;2.77;;
68989;SDS011;56046;47.270;11.368;2023-09-30T04:43:51;8.07;;;3.17;;
68989;SDS011;56046;47.270;11.368;2023-09-30T04:46:17;9.17;;;3.30;;
68989;SDS011;56046;47.270;11.368;2023-09-30T04:48:45;7.88;;;3.20;;
68989;SDS011;56046;47.270;11.368;2023-09-30T04:51:13;7.43;;;3.47;;
68989;SDS011;56046;47.270;11.368;2023-09-30T04:53:41;7.03;;;3.20;;
68989;SDS011;56046;47.270;11.368;2023-09-30T04:56:07;5.97;;;3.40;;
68989;SDS011;56046;47.270;11.368;2023-09-30T04:58:32;7.23;;;3.40;;
68989;SDS011;56046;47.270;11.368;2023-09-30T05:00:57;7.37;;;3.47;;
68989;SDS011;56046;47.270;11.368;2023-09-30T05:03:23;7.93;;;3.47;;
68989;SDS011;56046;47.270;11.368;2023-09-30T05:05:49;6.55;;;3.42;;
68989;SDS011;56046;47.270;11.368;2023-09-30T05:08:15;7.40;;;3.60;;
68989;SDS011;56046;47.270;11.368;2023-09-30T05:10:41;7.85;;;3.58;;
68989;SDS011;56046;47.270;11.368;2023-09-30T05:13:06;7.70;;;3.60;;
68989;SDS011;56046;47.270;11.368;2023-09-30T05:15:32;6.72;;;3.25;;
68989;SDS011;56046;47.270;11.368;2023-09-30T05:18:00;8.50;;;3.65;;
68989;SDS011;56046;47.270;11.368;2023-09-30T05:20:25;9.67;;;3.83;;
68989;SDS011;56046;47.270;11.368;2023-09-30T05:22:51;6.90;;;3.53;;
68989;SDS011;56046;47.270;11.368;2023-09-30T05:25:16;8.27;;;3.87;;
68989;SDS011;56046;47.270;11.368;2023-09-30T05:27:42;7.30;;;3.37;;
68989;SDS011;56046;47.270;11.368;2023-09-30T05:30:07;7.97;;;3.70;;
68989;SDS011;56046;47.270;11.368;2023-09-30T05:32:33;9.27;;;4.00;;
68989;SDS011;56046;47.270;11.368;2023-09-30T05:34:59;10.82;;;4.53;;
68989;SDS011;56046;47.270;11.368;2023-09-30T05:37:28;9.05;;;3.75;;
68989;SDS011;56046;47.270;11.368;2023-09-30T05:39:53;7.47;;;3.70;;
68989;SDS011;56046;47.270;11.368;2023-09-30T05:42:18;9.73;;;4.50;;
68989;SDS011;56046;47.270;11.368;2023-09-30T05:44:44;8.53;;;3.67;;
68989;SDS011;56046;47.270;11.368;2023-09-30T05:47:09;10.03;;;4.50;;
68989;SDS011;56046;47.270;11.368;2023-09-30T05:49:35;9.70;;;4.15;;
68989;SDS011;56046;47.270;11.368;2023-09-30T05:52:01;10.65;;;4.20;;
68989;SDS011;56046;47.270;11.368;2023-09-30T05:54:27;7.90;;;4.00;;
68989;SDS011;56046;47.270;11.368;2023-09-30T05:56:53;9.82;;;4.63;;
68989;SDS011;56046;47.270;11.368;2023-09-30T05:59:19;14.30;;;4.83;;
68989;SDS011;56046;47.270;11.368;2023-09-30T06:01:44;10.07;;;5.23;;
68989;SDS011;56046;47.270;11.368;2023-09-30T06:04:11;11.65;;;5.10;;
68989;SDS011;56046;47.270;11.368;2023-09-30T06:06:36;12.27;;;5.33;;
68989;SDS011;56046;47.270;11.368;2023-09-30T06:09:01;13.40;;;5.40;;
68989;SDS011;56046;47.270;11.368;2023-09-30T06:11:27;12.00;;;4.93;;
68989;SDS011;56046;47.270;11.368;2023-09-30T06:13:56;8.43;;;3.93;;
68989;SDS011;56046;47.270;11.368;2023-09-30T06:16:24;8.32;;;3.90;;
68989;SDS011;56046;47.270;11.368;2023-09-30T06:18:51;7.45;;;3.65;;
68989;SDS011;56046;47.270;11.368;2023-09-30T06:21:16;9.27;;;4.13;;
68989;SDS011;56046;47.270;11.368;2023-09-30T06:23:45;8.77;;;4.00;;
68989;SDS011;56046;47.270;11.368;2023-09-30T06:26:10;7.80;;;3.80;;
68989;SDS011;56046;47.270;11.368;2023-09-30T06:28:36;8.50;;;4.33;;
68989;SDS011;56046;47.270;11.368;2023-09-30T06:31:08;11.45;;;4.10;;
68989;SDS011;56046;47.270;11.368;2023-09-30T06:33:37;8.63;;;3.75;;
68989;SDS011;56046;47.270;11.368;2023-09-30T06:36:10;8.35;;;3.70;;
68989;SDS011;56046;47.270;11.368;2023-09-30T06:38:35;8.67;;;3.90;;
68989;SDS011;56046;47.270;11.368;2023-09-30T06:41:02;10.32;;;4.05;;
68989;SDS011;56046;47.270;11.368;2023-09-30T06:43:27;7.90;;;4.17;;
68989;SDS011;56046;47.270;11.368;2023-09-30T06:45:53;8.80;;;4.18;;
68989;SDS011;56046;47.270;11.368;2023-09-30T06:48:19;9.45;;;4.10;;
68989;SDS011;56046;47.270;11.368;2023-09-30T06:50:48;8.57;;;4.23;;
68989;SDS011;56046;47.270;11.368;2023-09-30T06:53:14;8.85;;;4.28;;
68989;SDS011;56046;47.270;11.368;2023-09-30T06:55:39;10.97;;;4.23;;
68989;SDS011;56046;47.270;11.368;2023-09-30T06:58:05;10.53;;;4.10;;
68989;SDS011;56046;47.270;11.368;2023-09-30T07:00:32;10.35;;;4.70;;
68989;SDS011;56046;47.270;11.368;2023-09-30T07:02:58;11.13;;;4.97;;
68989;SDS011;56046;47.270;11.368;2023-09-30T07:05:23;10.30;;;4.90;;
68989;SDS011;56046;47.270;11.368;2023-09-30T07:07:49;17.20;;;5.20;;
68989;SDS011;56046;47.270;11.368;2023-09-30T07:10:14;12.60;;;5.23;;
68989;SDS011;56046;47.270;11.368;2023-09-30T07:12:39;12.33;;;4.93;;
68989;SDS011;56046;47.270;11.368;2023-09-30T07:15:05;13.95;;;5.57;;
68989;SDS011;56046;47.270;11.368;2023-09-30T07:17:30;12.00;;;6.17;;
68989;SDS011;56046;47.270;11.368;2023-09-30T07:19:56;12.65;;;5.60;;
68989;SDS011;56046;47.270;11.368;2023-09-30T07:22:21;14.00;;;5.93;;
68989;SDS011;56046;47.270;11.368;2023-09-30T07:24:47;15.80;;;5.73;;
68989;SDS011;56046;47.270;11.368;2023-09-30T07:27:12;13.68;;;5.03;;
68989;SDS011;56046;47.270;11.368;2023-09-30T07:29:38;11.93;;;5.53;;
68989;SDS011;56046;47.270;11.368;2023-09-30T07:32:03;9.37;;;4.40;;
68989;SDS011;56046;47.270;11.368;2023-09-30T07:34:29;9.23;;;4.17;;
68989;SDS011;56046;47.270;11.368;2023-09-30T07:36:54;9.83;;;5.10;;
68989;SDS011;56046;47.270;11.368;2023-09-30T07:39:20;11.45;;;4.70;;
68989;SDS011;56046;47.270;11.368;2023-09-30T07:41:45;10.57;;;5.00;;
68989;SDS011;56046;47.270;11.368;2023-09-30T07:44:11;11.23;;;5.17;;
68989;SDS011;56046;47.270;11.368;2023-09-30T07:46:37;11.90;;;4.97;;
68989;SDS011;56046;47.270;11.368;2023-09-30T07:49:02;11.73;;;5.47;;
68989;SDS011;56046;47.270;11.368;2023-09-30T07:51:28;11.20;;;5.65;;
68989;SDS011;56046;47.270;11.368;2023-09-30T07:53:54;11.50;;;4.90;;
68989;SDS011;56046;47.270;11.368;2023-09-30T07:56:20;13.10;;;6.27;;
68989;SDS011;56046;47.270;11.368;2023-09-30T07:58:46;13.18;;;5.55;;
68989;SDS011;56046;47.270;11.368;2023-09-30T08:01:12;14.40;;;6.13;;
68989;SDS011;56046;47.270;11.368;2023-09-30T08:03:37;15.60;;;6.20;;
68989;SDS011;56046;47.270;11.368;2023-09-30T08:06:02;15.60;;;6.47;;
68989;SDS011;56046;47.270;11.368;2023-09-30T08:08:28;15.03;;;6.23;;
68989;SDS011;56046;47.270;11.368;2023-09-30T08:10:54;15.60;;;5.88;;
68989;SDS011;56046;47.270;11.368;2023-09-30T08:13:23;15.55;;;6.45;;
68989;SDS011;56046;47.270;11.368;2023-09-30T08:15:49;14.32;;;6.47;;
68989;SDS011;56046;47.270;11.368;2023-09-30T08:18:15;15.87;;;6.47;;
68989;SDS011;56046;47.270;11.368;2023-09-30T08:20:40;13.07;;;5.63;;
68989;SDS011;56046;47.270;11.368;2023-09-30T08:23:05;13.70;;;6.10;;
68989;SDS011;56046;47.270;11.368;2023-09-30T08:25:30;16.17;;;6.53;;
68989;SDS011;56046;47.270;11.368;2023-09-30T08:27:55;15.60;;;5.83;;
68989;SDS011;56046;47.270;11.368;2023-09-30T08:30:21;13.87;;;6.23;;
68989;SDS011;56046;47.270;11.368;2023-09-30T08:32:46;13.83;;;5.93;;
68989;SDS011;56046;47.270;11.368;2023-09-30T08:35:11;14.47;;;6.20;;
68989;SDS011;56046;47.270;11.368;2023-09-30T08:37:37;14.98;;;5.78;;
68989;SDS011;56046;47.270;11.368;2023-09-30T08:40:03;13.13;;;5.77;;
68989;SDS011;56046;47.270;11.368;2023-09-30T08:42:30;14.10;;;6.57;;
68989;SDS011;56046;47.270;11.368;2023-09-30T08:44:58;14.80;;;6.38;;
68989;SDS011;56046;47.270;11.368;2023-09-30T08:47:26;13.90;;;6.60;;
68989;SDS011;56046;47.270;11.368;2023-09-30T08:49:52;15.68;;;6.22;;
68989;SDS011;56046;47.270;11.368;2023-09-30T08:52:21;13.88;;;5.78;;
68989;SDS011;56046;47.270;11.368;2023-09-30T08:54:47;16.10;;;6.23;;
68989;SDS011;56046;47.270;11.368;2023-09-30T08:57:12;17.30;;;6.47;;
68989;SDS011;56046;47.270;11.368;2023-09-30T08:59:38;16.07;;;6.13;;
68989;SDS011;56046;47.270;11.368;2023-09-30T09:02:07;16.27;;;6.53;;
68989;SDS011;56046;47.270;11.368;2023-09-30T09:04:33;13.55;;;6.25;;
68989;SDS011;56046;47.270;11.368;2023-09-30T09:06:58;13.43;;;6.70;;
68989;SDS011;56046;47.270;11.368;2023-09-30T09:09:23;15.20;;;6.70;;
68989;SDS011;56046;47.270;11.368;2023-09-30T09:11:49;13.32;;;6.53;;
68989;SDS011;56046;47.270;11.368;2023-09-30T09:14:15;13.20;;;6.43;;
68989;SDS011;56046;47.270;11.368;2023-09-30T09:16:50;15.48;;;6.68;;
68989;SDS011;56046;47.270;11.368;2023-09-30T09:19:16;15.93;;;5.93;;
68989;SDS011;56046;47.270;11.368;2023-09-30T09:21:54;14.90;;;5.85;;
68989;SDS011;56046;47.270;11.368;2023-09-30T09:24:27;16.00;;;6.53;;
68989;SDS011;56046;47.270;11.368;2023-09-30T09:26:52;13.03;;;5.77;;
68989;SDS011;56046;47.270;11.368;2023-09-30T09:29:28;16.02;;;6.13;;
68989;SDS011;56046;47.270;11.368;2023-09-30T09:31:53;14.87;;;6.87;;
68989;SDS011;56046;47.270;11.368;2023-09-30T09:34:31;16.48;;;6.57;;
68989;SDS011;56046;47.270;11.368;2023-09-30T09:36:56;15.97;;;5.60;;
68989;SDS011;56046;47.270;11.368;2023-09-30T09:39:30;16.48;;;6.32;;
68989;SDS011;56046;47.270;11.368;2023-09-30T09:41:56;15.07;;;6.80;;
68989;SDS011;56046;47.270;11.368;2023-09-30T09:44:23;15.25;;;6.63;;
68989;SDS011;56046;47.270;11.368;2023-09-30T09:46:48;16.05;;;6.72;;
68989;SDS011;56046;47.270;11.368;2023-09-30T09:49:16;17.20;;;7.07;;
68989;SDS011;56046;47.270;11.368;2023-09-30T09:51:42;17.07;;;7.03;;
68989;SDS011;56046;47.270;11.368;2023-09-30T09:54:09;15.60;;;6.47;;
68989;SDS011;56046;47.270;11.368;2023-09-30T09:56:35;19.60;;;6.93;;
68989;SDS011;56046;47.270;11.368;2023-09-30T09:59:01;17.60;;;8.53;;
68989;SDS011;56046;47.270;11.368;2023-09-30T10:01:29;16.58;;;7.30;;
68989;SDS011;56046;47.270;11.368;2023-09-30T10:03:55;16.80;;;7.07;;
68989;SDS011;56046;47.270;11.368;2023-09-30T10:06:21;16.17;;;7.47;;
68989;SDS011;56046;47.270;11.368;2023-09-30T10:08:48;18.13;;;7.63;;
68989;SDS011;56046;47.270;11.368;2023-09-30T10:11:16;16.92;;;7.38;;
68989;SDS011;56046;47.270;11.368;2023-09-30T10:13:49;17.02;;;7.60;;
68989;SDS011;56046;47.270;11.368;2023-09-30T10:19:08;15.80;;;6.90;;
68989;SDS011;56046;47.270;11.368;2023-09-30T10:21:34;18.33;;;8.07;;
68989;SDS011;56046;47.270;11.368;2023-09-30T10:26:43;18.90;;;8.30;;
68989;SDS011;56046;47.270;11.368;2023-09-30T10:29:08;17.70;;;7.93;;
68989;SDS011;56046;47.270;11.368;2023-09-30T10:31:34;18.05;;;7.82;;
68989;SDS011;56046;47.270;11.368;2023-09-30T10:34:17;21.17;;;8.50;;
68989;SDS011;56046;47.270;11.368;2023-09-30T10:36:43;16.83;;;7.25;;
68989;SDS011;56046;47.270;11.368;2023-09-30T10:39:12;16.77;;;8.33;;
68989;SDS011;56046;47.270;11.368;2023-09-30T10:46:53;17.23;;;8.00;;
68989;SDS011;56046;47.270;11.368;2023-09-30T10:51:56;21.13;;;7.60;;
68989;SDS011;56046;47.270;11.368;2023-09-30T10:54:25;15.77;;;7.80;;
68989;SDS011;56046;47.270;11.368;2023-09-30T10:56:51;17.58;;;7.38;;
68989;SDS011;56046;47.270;11.368;2023-09-30T10:59:21;16.30;;;7.20;;
68989;SDS011;56046;47.270;11.368;2023-09-30T11:01:47;14.57;;;6.75;;
68989;SDS011;56046;47.270;11.368;2023-09-30T11:04:13;15.40;;;7.60;;
68989;SDS011;56046;47.270;11.368;2023-09-30T11:06:40;20.67;;;7.95;;
68989;SDS011;56046;47.270;11.368;2023-09-30T11:09:06;19.98;;;7.40;;
68989;SDS011;56046;47.270;11.368;2023-09-30T11:14:03;15.90;;;6.90;;
68989;SDS011;56046;47.270;11.368;2023-09-30T11:16:39;16.83;;;7.38;;
68989;SDS011;56046;47.270;11.368;2023-09-30T11:19:05;18.43;;;8.10;;
68989;SDS011;56046;47.270;11.368;2023-09-30T11:21:32;16.02;;;6.90;;
68989;SDS011;56046;47.270;11.368;2023-09-30T11:23:58;18.60;;;8.15;;
68989;SDS011;56046;47.270;11.368;2023-09-30T11:26:29;18.33;;;8.45;;
68989;SDS011;56046;47.270;11.368;2023-09-30T11:29:03;17.77;;;8.00;;
68989;SDS011;56046;47.270;11.368;2023-09-30T11:31:29;16.13;;;7.97;;
68989;SDS011;56046;47.270;11.368;2023-09-30T11:33:58;18.50;;;7.85;;
68989;SDS011;56046;47.270;11.368;2023-09-30T11:36:28;17.08;;;7.90;;
68989;SDS011;56046;47.270;11.368;2023-09-30T11:38:53;21.27;;;7.77;;
68989;SDS011;56046;47.270;11.368;2023-09-30T11:41:19;19.93;;;8.73;;
68989;SDS011;56046;47.270;11.368;2023-09-30T11:46:32;19.20;;;8.75;;
68989;SDS011;56046;47.270;11.368;2023-09-30T11:49:04;21.45;;;8.23;;
68989;SDS011;56046;47.270;11.368;2023-09-30T11:51:43;20.88;;;9.10;;
68989;SDS011;56046;47.270;11.368;2023-09-30T11:54:11;22.70;;;9.75;;
68989;SDS011;56046;47.270;11.368;2023-09-30T11:56:36;20.13;;;8.63;;
68989;SDS011;56046;47.270;11.368;2023-09-30T11:59:02;23.57;;;8.63;;
68989;SDS011;56046;47.270;11.368;2023-09-30T12:01:27;20.93;;;8.90;;
68989;SDS011;56046;47.270;11.368;2023-09-30T12:03:55;21.80;;;8.82;;
68989;SDS011;56046;47.270;11.368;2023-09-30T12:06:21;21.17;;;8.07;;
68989;SDS011;56046;47.270;11.368;2023-09-30T12:08:46;20.03;;;8.43;;
68989;SDS011;56046;47.270;11.368;2023-09-30T12:11:11;20.65;;;8.30;;
68989;SDS011;56046;47.270;11.368;2023-09-30T12:13:38;20.93;;;8.47;;
68989;SDS011;56046;47.270;11.368;2023-09-30T12:16:03;18.35;;;7.78;;
68989;SDS011;56046;47.270;11.368;2023-09-30T12:18:28;20.03;;;8.00;;
68989;SDS011;56046;47.270;11.368;2023-09-30T12:20:54;19.77;;;8.17;;
68989;SDS011;56046;47.270;11.368;2023-09-30T12:23:19;21.77;;;8.63;;
68989;SDS011;56046;47.270;11.368;2023-09-30T12:25:45;18.63;;;7.95;;
68989;SDS011;56046;47.270;11.368;2023-09-30T12:28:10;18.43;;;8.33;;
68989;SDS011;56046;47.270;11.368;2023-09-30T12:30:36;20.00;;;8.23;;
68989;SDS011;56046;47.270;11.368;2023-09-30T12:33:01;18.37;;;7.30;;
68989;SDS011;56046;47.270;11.368;2023-09-30T12:35:26;21.97;;;8.10;;
68989;SDS011;56046;47.270;11.368;2023-09-30T12:37:52;20.52;;;7.57;;
68989;SDS011;56046;47.270;11.368;2023-09-30T12:40:18;19.67;;;8.50;;
68989;SDS011;56046;47.270;11.368;2023-09-30T12:42:43;20.00;;;8.00;;
68989;SDS011;56046;47.270;11.368;2023-09-30T12:45:09;17.70;;;7.67;;
68989;SDS011;56046;47.270;11.368;2023-09-30T12:47:35;16.93;;;6.93;;
68989;SDS011;56046;47.270;11.368;2023-09-30T12:50:00;17.73;;;7.53;;
68989;SDS011;56046;47.270;11.368;2023-09-30T12:52:25;17.73;;;7.73;;
68989;SDS011;56046;47.270;11.368;2023-09-30T12:54:50;16.80;;;7.50;;
68989;SDS011;56046;47.270;11.368;2023-09-30T12:57:16;17.90;;;7.67;;
68989;SDS011;56046;47.270;11.368;2023-09-30T12:59:46;18.92;;;6.43;;
68989;SDS011;56046;47.270;11.368;2023-09-30T13:02:12;18.67;;;7.88;;
68989;SDS011;56046;47.270;11.368;2023-09-30T13:04:37;18.40;;;7.47;;
68989;SDS011;56046;47.270;11.368;2023-09-30T13:07:08;19.10;;;7.32;;
68989;SDS011;56046;47.270;11.368;2023-09-30T13:09:33;16.13;;;7.53;;
68989;SDS011;56046;47.270;11.368;2023-09-30T13:11:58;19.87;;;6.73;;
68989;SDS011;56046;47.270;11.368;2023-09-30T13:14:25;21.88;;;7.70;;
68989;SDS011;56046;47.270;11.368;2023-09-30T13:16:53;17.70;;;7.88;;
68989;SDS011;56046;47.270;11.368;2023-09-30T13:19:19;18.55;;;7.05;;
68989;SDS011;56046;47.270;11.368;2023-09-30T13:21:46;16.07;;;7.17;;
68989;SDS011;56046;47.270;11.368;2023-09-30T13:24:11;18.27;;;7.25;;
68989;SDS011;56046;47.270;11.368;2023-09-30T13:26:37;16.23;;;6.60;;
68989;SDS011;56046;47.270;11.368;2023-09-30T13:29:02;19.33;;;7.77;;
68989;SDS011;56046;47.270;11.368;2023-09-30T13:31:30;18.40;;;7.03;;
68989;SDS011;56046;47.270;11.368;2023-09-30T13:33:55;15.90;;;6.30;;
68989;SDS011;56046;47.270;11.368;2023-09-30T13:36:20;16.73;;;7.70;;
68989;SDS011;56046;47.270;11.368;2023-09-30T13:38:45;14.37;;;6.60;;
68989;SDS011;56046;47.270;11.368;2023-09-30T13:41:11;17.33;;;6.18;;
68989;SDS011;56046;47.270;11.368;2023-09-30T13:43:36;16.47;;;6.73;;
68989;SDS011;56046;47.270;11.368;2023-09-30T13:46:04;16.17;;;7.23;;
68989;SDS011;56046;47.270;11.368;2023-09-30T13:48:32;16.17;;;6.85;;
68989;SDS011;56046;47.270;11.368;2023-09-30T13:51:03;18.33;;;7.60;;
68989;SDS011;56046;47.270;11.368;2023-09-30T13:53:29;16.23;;;6.28;;
68989;SDS011;56046;47.270;11.368;2023-09-30T13:55:54;18.37;;;7.23;;
68989;SDS011;56046;47.270;11.368;2023-09-30T13:58:19;17.10;;;6.50;;
68989;SDS011;56046;47.270;11.368;2023-09-30T14:00:48;16.80;;;7.00;;
68989;SDS011;56046;47.270;11.368;2023-09-30T14:03:13;18.38;;;6.95;;
68989;SDS011;56046;47.270;11.368;2023-09-30T14:05:38;16.97;;;6.97;;
68989;SDS011;56046;47.270;11.368;2023-09-30T14:08:04;19.13;;;6.97;;
68989;SDS011;56046;47.270;11.368;2023-09-30T14:10:32;18.08;;;7.10;;
68989;SDS011;56046;47.270;11.368;2023-09-30T14:12:57;19.43;;;7.50;;
68989;SDS011;56046;47.270;11.368;2023-09-30T14:15:23;20.00;;;7.17;;
68989;SDS011;56046;47.270;11.368;2023-09-30T14:17:48;17.70;;;6.40;;
68989;SDS011;56046;47.270;11.368;2023-09-30T14:20:13;18.43;;;7.03;;
68989;SDS011;56046;47.270;11.368;2023-09-30T14:22:39;17.15;;;6.32;;
68989;SDS011;56046;47.270;11.368;2023-09-30T14:25:04;17.30;;;6.47;;
68989;SDS011;56046;47.270;11.368;2023-09-30T14:27:30;17.95;;;6.90;;
68989;SDS011;56046;47.270;11.368;2023-09-30T14:29:56;17.90;;;6.30;;
68989;SDS011;56046;47.270;11.368;2023-09-30T14:32:21;18.90;;;6.80;;
68989;SDS011;56046;47.270;11.368;2023-09-30T14:34:48;17.52;;;6.78;;
68989;SDS011;56046;47.270;11.368;2023-09-30T14:37:13;17.00;;;6.80;;
68989;SDS011;56046;47.270;11.368;2023-09-30T14:39:38;21.30;;;7.80;;
68989;SDS011;56046;47.270;11.368;2023-09-30T14:42:03;19.10;;;6.60;;